Chesapeake, Ohio
Current Conditions -  °F | °C
As of 4:51 AM on Thursday 23 Oct 2014 (Local Time) from KHTS Reporting Station
Overcast Overcast  
Wind Chill: 47°   Ceiling: 3700
Heat Index: 47°   Visibility: 10mi
Dew Point: 42°   Wind: 3mph
Humidity: 83%   Direction: 300°WNW
Pressure: 30.21"   Gusts: NA
Location:  38.43°N, 82.46°W
Report Text: KHTS 230851Z 30003KT 10SM OVC037 08/06 A3021 RMK AO2 SLP231 T00830056 53001
Loading
Personal Weather Stations






























Interactive Weather Map
Tropical Storm Tracking
New forecast layout! Learn more

10-Day Weather Forecast

Advertisements
Track Severe Weather on mobile